Terminal Aerodrome Forecast
Issued by NWS Raleigh/Durham, NC

Home | Current Version | Previous Version | Text Only | Print | Product List | Glossary On
Versions: 1 2 3 4 5 6 7 8 9 10 11 12 13 14 15 16 17 18 19 20 21 22 23 24 25 26 27
000
FTUS42 KRAH 292358 AAA
TAFFAY
TAF AMD
KFAY 292358Z 3000/3024 04006KT P6SM VCSH SCT050
     FM300200 06003KT P6SM SKC
     FM300800 VRB02KT 2SM BR SCT015
     FM301000 VRB02KT 2SM BR BKN005
     FM301300 12003KT 4SM BR SCT007 BKN020
     FM301500 16004KT P6SM SCT040 BKN250=

USA.gov is the U.S. government's official web portal to all federal, state and local government web resources and services.